Norwegian Star — C6FR3 — position and weather

sailwx.info

Track history (hours):
 
Tides and Currents Weather Stations Pressure Air Temp Water Temp Dewpoint Dewpoint Depression Visibility Wind Speed Wind Dir Waves Ship Positions

Norwegian Star

Operator: Norwegian Cruise Line

Last reported at 2016-May-03 01:00 UTC. Time now 2016-May-06 22:29 UTC.
Position N 62°00' W 004°12'.

Type: Passenger vessel. MMSI: 311082000.

Wind from 200 at 18 knots

Waves 0.5 meters (2 feet), 4 second period

Barometer 1018.2 mb
Air temperature 8.8 ° C
Dewpoint 7.8 ° C

Date/timePositionNaut miles runAvg speedWind from/ knotsBaromVisibWave heightAir tempDewpointWater temp
2016-May-03 01:00N 62°00' W 004°12'31725.5 200 / 181018.2 0.5 8.8 7.8
2016-May-02 12:33N 58°53' E 004°27'1615.8
2016-May-02 11:34N 58°41' E 004°47'1615.7
2016-May-02 10:34N 58°30' E 005°08'1616.0
2016-May-02 09:33N 58°18' E 005°29'1616.0
2016-May-02 08:33N 58°08' E 005°52'1119.1
2016-May-02 08:00N 58°00' E 006°06'613.0 170 / 381017.0 5.4 1.0 8.0 4.011.0
2016-May-02 07:33N 57°57' E 006°15'1716.6
2016-May-02 06:33N 57°47' E 006°40'1018.6
2016-May-02 06:00N 57°48' E 007°00'2917.2 170 / 351019.0 5.4 1.5 8.2 7.0
2016-May-02 04:17N 57°46' E 007°55'1317.8
2016-May-02 03:34N 57°47' E 008°19'1817.7
2016-May-02 02:33N 57°49' E 008°52'1716.8
2016-May-02 01:33N 57°52' E 009°23'1616.2
2016-May-02 00:33N 57°53' E 009°54'1717.4
2016-May-01 23:34N 57°51' E 010°26'1717.1
2016-May-01 22:34N 57°45' E 010°56'2121.1
2016-May-01 21:34N 57°30' E 011°24'2121.4
2016-May-01 20:33N 57°10' E 011°38'1120.1
2016-May-01 20:00N 57°00' E 011°48'1022.9 340 / 51023.010.8 8.0-1.012.0
2016-May-01 19:33N 56°50' E 011°52'2120.8
2016-May-01 18:34N 56°30' E 012°01'2019.6
2016-May-01 17:33N 56°13' E 012°18'1818.0
2016-May-01 16:34N 56°00' E 012°41'1615.9
2016-May-01 15:33N 55°44' E 012°40'2 1.9
2016-May-01 14:33N 55°43' E 012°38'0 0.0
2016-May-01 13:33N 55°43' E 012°38'0 0.0
2016-May-01 12:34N 55°43' E 012°38'0 0.0
2016-May-01 11:33N 55°43' E 012°38'0 0.0
2016-May-01 10:33N 55°43' E 012°38'0 0.0
2016-May-01 09:34N 55°43' E 012°38'0 0.0
2016-May-01 08:33N 55°43' E 012°38'0 0.0
2016-May-01 07:33N 55°43' E 012°38'0 0.0
2016-May-01 06:33N 55°43' E 012°38'0 0.0
2016-May-01 05:33N 55°43' E 012°38'0 0.0
2016-May-01 04:34N 55°43' E 012°38'7 7.3
2016-May-01 03:33N 55°50' E 012°42'1514.9
2016-May-01 02:33N 56°04' E 012°36'1514.9
2016-May-01 01:34N 56°13' E 012°14'1715.1
2016-May-01 00:27N 56°27' E 011°59'7941743.7
2016-May-01 00:00N 56°36' W 012°00'7891816.2 100 / 71021.1 1.5 8.0 4.0
2016-Apr-30 23:33N 56°40' E 011°55'1515.1
2016-Apr-30 22:33N 56°55' E 011°45'1615.6
2016-Apr-30 21:33N 57°09' E 011°35'1615.6
2016-Apr-30 20:33N 57°24' E 011°26'1515.0
2016-Apr-30 19:34N 57°35' E 011°08'1515.2
2016-Apr-30 18:34N 57°46' E 010°47'1414.2
2016-Apr-30 17:32N 57°47' E 010°20'1615.4
2016-Apr-30 16:30N 57°45' E 009°50'7115.7
2016-Apr-30 12:00N 57°06' E 008°00'18717.1 180 / 271014.110.8 0.5 9.0 3.0
2016-Apr-30 01:03N 54°28' E 005°01'1121.5
2016-Apr-30 00:33N 54°19' E 004°52'2221.3
2016-Apr-29 23:30N 53°58' E 004°36'3120.5
2016-Apr-29 22:00N 53°36' E 004°00'11721.5 260 / 281009.010.8 1.5 8.0-1.011.0
2016-Apr-29 16:33N 51°51' E 002°37'2121.2
2016-Apr-29 15:33N 51°33' E 002°17'2121.4
2016-Apr-29 14:33N 51°17' E 001°55'2121.2
2016-Apr-29 13:33N 51°01' E 001°32'2020.4
2016-Apr-29 12:33N 50°42' E 001°20'4921.1
2016-Apr-29 10:14N 50°23' E 000°09'1421.2
2016-Apr-29 09:33N 50°19' W 000°13'5120.0
2016-Apr-29 07:00N 50°06' W 001°30'5119.3 290 / 25 5.4 1.5 9.5 10.0
2016-Apr-29 04:22N 49°52' W 002°46'1720.2
2016-Apr-29 03:32N 49°45' W 003°09'1018.4
2016-Apr-29 03:00N 49°42' W 003°24'7520.9 300 / 231013.2 2.2 0.510.0 1.0
2016-Apr-28 23:23N 49°02' W 005°03'1720.7
2016-Apr-28 22:32N 48°53' W 005°25'34420.8
2016-Apr-28 06:00N 45°18' W 012°00'45719.9 010 / 251019.4 3.011.0
2016-Apr-27 07:00N 40°36' W 020°12'20923.2 220 / 101010.0 5.4 2.015.0 15.0
2016-Apr-26 22:00N 38°30' W 023°48'1216.8 260 / 221011.010.8 18.014.018.0
2016-Apr-26 21:16N 38°22' W 024°00'1521.1
2016-Apr-26 20:33N 38°14' W 024°15'2120.8
2016-Apr-26 19:33N 38°01' W 024°36'2121.0
2016-Apr-26 18:33N 37°48' W 024°57'2020.3
2016-Apr-26 17:33N 37°40' W 025°21'1514.6
2016-Apr-26 16:33N 37°44' W 025°39'1 0.7
2016-Apr-26 15:31N 37°44' W 025°40'0 0.0
2016-Apr-26 14:31N 37°44' W 025°40'0 0.0
2016-Apr-26 13:31N 37°44' W 025°40'0 0.0
2016-Apr-26 12:31N 37°44' W 025°40'0 0.0
2016-Apr-26 11:31N 37°44' W 025°40'0 0.0
2016-Apr-26 10:31N 37°44' W 025°40'0 0.0
2016-Apr-26 09:31N 37°44' W 025°40'0 0.0
2016-Apr-26 08:31N 37°44' W 025°40'0 0.0
2016-Apr-26 07:31N 37°44' W 025°40'0 0.0
2016-Apr-26 06:31N 37°44' W 025°40'3 5.5
2016-Apr-26 06:00N 37°42' W 025°42'3 6.0 130 / 101010.8 1.017.0
2016-Apr-26 05:31N 37°44' W 025°40'0 0.0
2016-Apr-26 04:31N 37°44' W 025°40'0 0.0
2016-Apr-26 03:31N 37°44' W 025°40'0 0.0
2016-Apr-26 02:31N 37°44' W 025°40'0 0.1
2016-Apr-26 01:34N 37°44' W 025°40'1111.1
2016-Apr-26 00:33N 37°41' W 025°53'2323.4
2016-Apr-25 23:33N 37°38' W 026°22'2323.4
2016-Apr-25 22:33N 37°35' W 026°52'2323.1
2016-Apr-25 21:33N 37°32' W 027°20'1322.2
2016-Apr-25 21:00N 37°30' W 027°36'1124.9 200 / 251009.010.8 17.015.016.0
2016-Apr-25 20:34N 37°29' W 027°50'2323.3
2016-Apr-25 19:33N 37°27' W 028°19'2323.1
2016-Apr-25 18:33N 37°24' W 028°48'2323.3
2016-Apr-25 17:33N 37°21' W 029°17'2423.1
2016-Apr-25 16:31N 37°18' W 029°47'13120.0
2016-Apr-25 10:00N 37°06' W 032°30'5317.7 230 / 241006.010.8 1.018.016.018.0
2016-Apr-25 07:00N 37°00' W 033°36'6415.9 230 / 221005.8 3.017.0
2016-Apr-25 03:00N 36°48' W 034°54'7719.3 240 / 201005.5 2.2 1.517.015.0
2016-Apr-24 23:00N 36°42' W 036°30'2020.2 230 / 301004.010.8 18.015.018.0
2016-Apr-24 22:00N 36°36' W 036°54'12120.2 240 / 271004.010.8 18.013.016.0
2016-Apr-24 16:00N 36°24' W 039°24'13719.5 250 / 201004.110.8 2.020.010.0
2016-Apr-24 09:00N 36°06' W 042°12'11719.5 290 / 241004.0 2.517.014.016.0
2016-Apr-24 03:00N 35°54' W 044°36'11318.8 270 / 351004.0 2.018.0 4.0
2016-Apr-23 21:00N 35°42' W 046°54'11318.8 280 / 251004.010.8 4.018.5 7.120.0
2016-Apr-23 15:00N 35°30' W 049°12'9518.9 280 / 351004.5 2.019.010.0
2016-Apr-23 10:00N 35°12' W 051°06'12818.2 290 / 301009.2 3.518.0
2016-Apr-23 03:00N 35°06' W 053°42'   290 / 391007.2 2.2 2.018.011.0
Track history (hours):
 
Tides and Currents Weather Stations Pressure Air Temp Water Temp Dewpoint Dewpoint Depression Visibility Wind Speed Wind Dir Waves Ship Positions

Norwegian Star

Operator: Norwegian Cruise Line

Last reported at 2016-May-03 01:00 UTC. Time now 2016-May-06 22:29 UTC.
Position N 62°00' W 004°12'.

Type: Passenger vessel. MMSI: 311082000.

Wind from 200 at 18 knots

Waves 0.5 meters (2 feet), 4 second period

Barometer 1018.2 mb
Air temperature 8.8 ° C
Dewpoint 7.8 ° C

Date/timePositionNaut miles runAvg speedWind from/ knotsBaromVisibWave heightAir tempDewpointWater temp
2016-May-03 01:00N 62°00' W 004°12'31725.5 200 / 181018.2 0.5 8.8 7.8
2016-May-02 12:33N 58°53' E 004°27'1615.8
2016-May-02 11:34N 58°41' E 004°47'1615.7
2016-May-02 10:34N 58°30' E 005°08'1616.0
2016-May-02 09:33N 58°18' E 005°29'1616.0
2016-May-02 08:33N 58°08' E 005°52'1119.1
2016-May-02 08:00N 58°00' E 006°06'613.0 170 / 381017.0 5.4 1.0 8.0 4.011.0
2016-May-02 07:33N 57°57' E 006°15'1716.6
2016-May-02 06:33N 57°47' E 006°40'1018.6
2016-May-02 06:00N 57°48' E 007°00'2917.2 170 / 351019.0 5.4 1.5 8.2 7.0
2016-May-02 04:17N 57°46' E 007°55'1317.8
2016-May-02 03:34N 57°47' E 008°19'1817.7
2016-May-02 02:33N 57°49' E 008°52'1716.8
2016-May-02 01:33N 57°52' E 009°23'1616.2
2016-May-02 00:33N 57°53' E 009°54'1717.4
2016-May-01 23:34N 57°51' E 010°26'1717.1
2016-May-01 22:34N 57°45' E 010°56'2121.1
2016-May-01 21:34N 57°30' E 011°24'2121.4
2016-May-01 20:33N 57°10' E 011°38'1120.1
2016-May-01 20:00N 57°00' E 011°48'1022.9 340 / 51023.010.8 8.0-1.012.0
2016-May-01 19:33N 56°50' E 011°52'2120.8
2016-May-01 18:34N 56°30' E 012°01'2019.6
2016-May-01 17:33N 56°13' E 012°18'1818.0
2016-May-01 16:34N 56°00' E 012°41'1615.9
2016-May-01 15:33N 55°44' E 012°40'2 1.9
2016-May-01 14:33N 55°43' E 012°38'0 0.0
2016-May-01 13:33N 55°43' E 012°38'0 0.0
2016-May-01 12:34N 55°43' E 012°38'0 0.0
2016-May-01 11:33N 55°43' E 012°38'0 0.0
2016-May-01 10:33N 55°43' E 012°38'0 0.0
2016-May-01 09:34N 55°43' E 012°38'0 0.0
2016-May-01 08:33N 55°43' E 012°38'0 0.0
2016-May-01 07:33N 55°43' E 012°38'0 0.0
2016-May-01 06:33N 55°43' E 012°38'0 0.0
2016-May-01 05:33N 55°43' E 012°38'0 0.0
2016-May-01 04:34N 55°43' E 012°38'7 7.3
2016-May-01 03:33N 55°50' E 012°42'1514.9
2016-May-01 02:33N 56°04' E 012°36'1514.9
2016-May-01 01:34N 56°13' E 012°14'1715.1
2016-May-01 00:27N 56°27' E 011°59'7941743.7
2016-May-01 00:00N 56°36' W 012°00'7891816.2 100 / 71021.1 1.5 8.0 4.0
2016-Apr-30 23:33N 56°40' E 011°55'1515.1
2016-Apr-30 22:33N 56°55' E 011°45'1615.6
2016-Apr-30 21:33N 57°09' E 011°35'1615.6
2016-Apr-30 20:33N 57°24' E 011°26'1515.0
2016-Apr-30 19:34N 57°35' E 011°08'1515.2
2016-Apr-30 18:34N 57°46' E 010°47'1414.2
2016-Apr-30 17:32N 57°47' E 010°20'1615.4
2016-Apr-30 16:30N 57°45' E 009°50'7115.7
2016-Apr-30 12:00N 57°06' E 008°00'18717.1 180 / 271014.110.8 0.5 9.0 3.0
2016-Apr-30 01:03N 54°28' E 005°01'1121.5
2016-Apr-30 00:33N 54°19' E 004°52'2221.3
2016-Apr-29 23:30N 53°58' E 004°36'3120.5
2016-Apr-29 22:00N 53°36' E 004°00'11721.5 260 / 281009.010.8 1.5 8.0-1.011.0
2016-Apr-29 16:33N 51°51' E 002°37'2121.2
2016-Apr-29 15:33N 51°33' E 002°17'2121.4
2016-Apr-29 14:33N 51°17' E 001°55'2121.2
2016-Apr-29 13:33N 51°01' E 001°32'2020.4
2016-Apr-29 12:33N 50°42' E 001°20'4921.1
2016-Apr-29 10:14N 50°23' E 000°09'1421.2
2016-Apr-29 09:33N 50°19' W 000°13'5120.0
2016-Apr-29 07:00N 50°06' W 001°30'5119.3 290 / 25 5.4 1.5 9.5 10.0
2016-Apr-29 04:22N 49°52' W 002°46'1720.2
2016-Apr-29 03:32N 49°45' W 003°09'1018.4
2016-Apr-29 03:00N 49°42' W 003°24'7520.9 300 / 231013.2 2.2 0.510.0 1.0
2016-Apr-28 23:23N 49°02' W 005°03'1720.7
2016-Apr-28 22:32N 48°53' W 005°25'34420.8
2016-Apr-28 06:00N 45°18' W 012°00'45719.9 010 / 251019.4 3.011.0
2016-Apr-27 07:00N 40°36' W 020°12'20923.2 220 / 101010.0 5.4 2.015.0 15.0
2016-Apr-26 22:00N 38°30' W 023°48'1216.8 260 / 221011.010.8 18.014.018.0
2016-Apr-26 21:16N 38°22' W 024°00'1521.1
2016-Apr-26 20:33N 38°14' W 024°15'2120.8
2016-Apr-26 19:33N 38°01' W 024°36'2121.0
2016-Apr-26 18:33N 37°48' W 024°57'2020.3
2016-Apr-26 17:33N 37°40' W 025°21'1514.6
2016-Apr-26 16:33N 37°44' W 025°39'1 0.7
2016-Apr-26 15:31N 37°44' W 025°40'0 0.0
2016-Apr-26 14:31N 37°44' W 025°40'0 0.0
2016-Apr-26 13:31N 37°44' W 025°40'0 0.0
2016-Apr-26 12:31N 37°44' W 025°40'0 0.0
2016-Apr-26 11:31N 37°44' W 025°40'0 0.0
2016-Apr-26 10:31N 37°44' W 025°40'0 0.0
2016-Apr-26 09:31N 37°44' W 025°40'0 0.0
2016-Apr-26 08:31N 37°44' W 025°40'0 0.0
2016-Apr-26 07:31N 37°44' W 025°40'0 0.0
2016-Apr-26 06:31N 37°44' W 025°40'3 5.5
2016-Apr-26 06:00N 37°42' W 025°42'3 6.0 130 / 101010.8 1.017.0
2016-Apr-26 05:31N 37°44' W 025°40'0 0.0
2016-Apr-26 04:31N 37°44' W 025°40'0 0.0
2016-Apr-26 03:31N 37°44' W 025°40'0 0.0
2016-Apr-26 02:31N 37°44' W 025°40'0 0.1
2016-Apr-26 01:34N 37°44' W 025°40'1111.1
2016-Apr-26 00:33N 37°41' W 025°53'2323.4
2016-Apr-25 23:33N 37°38' W 026°22'2323.4
2016-Apr-25 22:33N 37°35' W 026°52'2323.1
2016-Apr-25 21:33N 37°32' W 027°20'1322.2
2016-Apr-25 21:00N 37°30' W 027°36'1124.9 200 / 251009.010.8 17.015.016.0
2016-Apr-25 20:34N 37°29' W 027°50'2323.3
2016-Apr-25 19:33N 37°27' W 028°19'2323.1
2016-Apr-25 18:33N 37°24' W 028°48'2323.3
2016-Apr-25 17:33N 37°21' W 029°17'2423.1
2016-Apr-25 16:31N 37°18' W 029°47'13120.0
2016-Apr-25 10:00N 37°06' W 032°30'5317.7 230 / 241006.010.8 1.018.016.018.0
2016-Apr-25 07:00N 37°00' W 033°36'6415.9 230 / 221005.8 3.017.0
2016-Apr-25 03:00N 36°48' W 034°54'7719.3 240 / 201005.5 2.2 1.517.015.0
2016-Apr-24 23:00N 36°42' W 036°30'2020.2 230 / 301004.010.8 18.015.018.0
2016-Apr-24 22:00N 36°36' W 036°54'12120.2 240 / 271004.010.8 18.013.016.0
2016-Apr-24 16:00N 36°24' W 039°24'13719.5 250 / 201004.110.8 2.020.010.0
2016-Apr-24 09:00N 36°06' W 042°12'11719.5 290 / 241004.0 2.517.014.016.0
2016-Apr-24 03:00N 35°54' W 044°36'11318.8 270 / 351004.0 2.018.0 4.0
2016-Apr-23 21:00N 35°42' W 046°54'11318.8 280 / 251004.010.8 4.018.5 7.120.0
2016-Apr-23 15:00N 35°30' W 049°12'9518.9 280 / 351004.5 2.019.010.0
2016-Apr-23 10:00N 35°12' W 051°06'12818.2 290 / 301009.2 3.518.0
2016-Apr-23 03:00N 35°06' W 053°42'   290 / 391007.2 2.2 2.018.011.0

Dump ship's entire track history